California, Missouri
Current Conditions -  °F | °C
As of 6:55 AM on Friday 19 Dec 2014 (Local Time) from KVER Reporting Station
Haze Haze  
Wind Chill: 32°   Ceiling: 600
Heat Index: 32°   Visibility: 4mi
Dew Point: 32°   Wind: 3mph
Humidity: 99%   Direction: 80°E
Pressure: 30.27"   Gusts: NA
Location:  38.63°N, 92.57°W
Report Text: KVER 191255Z AUTO 08003KT 4SM BR OVC006 00/00 A3027 RMK AO2 T00010000
Loading
Personal Weather Stations






























Interactive Weather Map New forecast layout! Learn more

10-Day Weather Forecast

Advertisements
Track Severe Weather on mobile